EDDCDTTA

Guest
Details From EDDC - Dresden
To DTTA - Carthage
Flight Number -
Tags Generated
Created
Modified
Stats Distance 870 nm / 1,612 km
Max Altitude 0 ft / 0 m
Waypoints 5
Social Downloads 0
Likes 0
Share VATSIM

Download

Looking for another format? Having issues loading an existing format? Contact us
Advertisement - Login to hide

Notes

Generated

Route

EDDC UNKEN BUKIN TUC60 DTTA

ID Type Via Altitude Latitude Longitude Leg Dist Tot Dist Heading (true) Name
O EDDC APT - 0 ft / 0 m 51.12425˚ 13.75544˚ - 0 nm - -
UNKEN FIX - 0 ft / 0 m 47.69014˚ 12.69687˚ 210 nm 210 nm 192° / 191° -
BUKIN FIX - 0 ft / 0 m 43.67694˚ 11.63667˚ 245 nm 455 nm 191° / 190° -
TUC60 FIX - 0 ft / 0 m 37.01766˚ 10.25210˚ 404 nm 860 nm 189° / 189° -
O DTTA APT - 0 ft / 0 m 36.85426˚ 10.21769˚ 9 nm 870 nm 190° / 190° -

Altitude Profile

Advertisement - Login to hide

Weather


0- 5 10 15 20 25 30 35+ Temperature / ° C

Clouds and Precipitation
Forecast for 2017-12-14 12:00 UTC. Updated an hour ago

Ground ~20,000 ft ~40,000 ft Winds

EDDC

Details ICAO EDDC (DRS)
Name Dresden
Region Germany - Civil
Timezone Europe/Berlin (UTC+1.0)
Stats Elevation 752 ft / 229 m (AMSL)
Location 51.134366° 13.768065°
Runways 1
Magnetic Variation 3.799° E

METAR

EDDC 141020Z 25020G34KT 220V280 9999 -RA BKN029 04/M00 Q0992 TEMPO 22020G40KT

Decode

TAF

TAF AMD EDDC 140835Z 1408/1506 22015G30KT 9999 BKN030 TEMPO 1408/1413 25020G40KT 4500 SHRASN BKN010TCU PROB30 TEMPO 1408/1409 25025G50KT 2500 TSRASN BECMG 1416/1419 22010KT TEMPO 1502/1506 1500 SN BKN003

Decode

Departure Runways

ID Width Length Bearing (true) Bearing (mag) Surface Threshold Offset Overrun Length
04 197 ft / 60 m 9,348 ft / 2,849 m 40.74° 36.94° Concrete 0 ft / 0 m 0 ft / 0 m
22 197 ft / 60 m 9,348 ft / 2,849 m 220.76° 216.96° Concrete 984 ft / 300 m 0 ft / 0 m

DTTA

Details ICAO DTTA (TUN)
Name CARTHAGE
Region Tunisia
Timezone Africa/Tunis (UTC+1.0)
Stats Elevation 22 ft / 7 m (AMSL)
Location 36.851267° 10.230027°
Runways 2
Magnetic Variation 2.403° E

METAR

DTTA 141030Z 21007KT 180V240 9999 FEW026 15/06 Q1023 NOSIG

Decode

TAF

TAF DTTA 140500Z 1406/1506 22012KT 9999 SCT023= TAF DTMB 140500Z 1406/1506 22010KT 9999 FEW020

Decode

Destination Runways

ID Width Length Bearing (true) Bearing (mag) Surface Threshold Offset Overrun Length
01 148 ft / 45 m 10,502 ft / 3,201 m 12.29° 9.89° Asphalt 0 ft / 0 m 197 ft / 60 m
11 148 ft / 45 m 9,345 ft / 2,848 m 112.55° 110.15° Asphalt 0 ft / 0 m 643 ft / 196 m
19 148 ft / 45 m 10,502 ft / 3,201 m 192.29° 189.89° Asphalt 0 ft / 0 m 197 ft / 60 m
29 148 ft / 45 m 9,345 ft / 2,848 m 292.57° 290.17° Asphalt 657 ft / 200 m 197 ft / 60 m

Approach Navaids

Runway Type Ident Frequency Range Bearing (true) Bearing (mag) Slope Elevation
01 Glidescope TBL 111.10 MHz 10 nm / 19 km 10.00° 7.60° 3.00° 22 ft / 7 m (AMSL)
01 DME TBL 111.10 MHz 18 nm / 33 km - - - 22 ft / 7 m (AMSL)
19 Localiser TSI 110.30 MHz 18 nm / 33 km 192.29° 189.89° - 13 ft / 4 m (AMSL)
19 Glidescope TSI 110.30 MHz 10 nm / 19 km 192.29° 189.89° 3.00° 22 ft / 7 m (AMSL)
29 Localiser TKE 108.50 MHz 18 nm / 33 km 292.54° 290.14° - 22 ft / 7 m (AMSL)
29 Glidescope TKE 108.50 MHz 10 nm / 19 km 292.56° 290.15° 3.00° 22 ft / 7 m (AMSL)
29 DME TKE 108.50 MHz 18 nm / 33 km - - - 22 ft / 7 m (AMSL)